Costa Mediterranea — IBCF — position and weather

sailwx.info

Track history (hours):
 
Tides and Currents Weather Stations Pressure Air Temp Water Temp Dewpoint Dewpoint Depression Visibility Wind Speed Wind Dir Waves Ship Positions

Costa Mediterranea

Last reported at 2018-Nov-11 02:32 UTC. Time now 2018-Nov-14 02:33 UTC.
Position N 43°39' E 007°53'.

Length 293 m; draft 8 m.

Type: Ship. MMSI: 247088200.

Date/timePositionNaut miles runAvg speedWind from/ knotsBaromVisibWave heightAir tempDewpointWater temp
2018-Nov-11 02:32N 43°39' E 007°53'713.5
2018-Nov-11 02:02N 43°35' E 007°45'713.7
2018-Nov-11 01:32N 43°31' E 007°38'713.7
2018-Nov-11 01:02N 43°27' E 007°30'713.8
2018-Nov-11 00:32N 43°23' E 007°23'714.0
2018-Nov-11 00:02N 43°18' E 007°15'713.7
2018-Nov-10 23:32N 43°15' E 007°07'713.6
2018-Nov-10 23:02N 43°11' E 006°59'713.6
2018-Nov-10 22:32N 43°07' E 006°51'713.0
2018-Nov-10 22:02N 43°04' E 006°44'6412.3
2018-Nov-10 16:52N 43°12' E 005°17'413.7
2018-Nov-10 16:32N 43°16' E 005°15'611.1
2018-Nov-10 16:01N 43°21' E 005°19'1 0.9
2018-Nov-10 15:04N 43°21' E 005°20'0 0.0
2018-Nov-10 13:16N 43°21' E 005°20'0 0.0
2018-Nov-10 12:46N 43°21' E 005°20'0 0.0
2018-Nov-10 11:10N 43°21' E 005°20'0 0.0
2018-Nov-10 10:10N 43°21' E 005°20'0 0.0
2018-Nov-10 09:10N 43°21' E 005°20'0 0.0
2018-Nov-10 08:52N 43°21' E 005°20'0 0.0
2018-Nov-10 07:52N 43°21' E 005°20'0 0.7
2018-Nov-10 07:19N 43°21' E 005°20'2 5.3
2018-Nov-10 06:57N 43°21' E 005°17'4 9.8
2018-Nov-10 06:33N 43°18' E 005°13'916.5
2018-Nov-10 06:01N 43°10' E 005°07'15817.7
2018-Nov-09 21:08N 41°21' E 002°34'317.8
2018-Nov-09 20:57N 41°19' E 002°30'717.6
2018-Nov-09 20:33N 41°16' E 002°22'917.7
2018-Nov-09 20:03N 41°13' E 002°11'918.0
2018-Nov-09 19:32N 41°10' E 001°59'918.0
2018-Nov-09 19:02N 41°08' E 001°48'918.5
2018-Nov-09 18:32N 41°06' E 001°36'10 0.7
2018-Nov-09 04:26N 40°57' E 001°30'610.0
2018-Nov-09 03:52N 40°54' E 001°37'3 9.0
2018-Nov-09 03:29N 40°54' E 001°41'6 9.6
2018-Nov-09 02:49N 40°56' E 001°49'310.0
2018-Nov-09 02:31N 40°57' E 001°53'510.0
2018-Nov-09 02:02N 40°58' E 001°59'5 9.8
2018-Nov-09 01:32N 40°59' E 002°05'15 9.9
2018-Nov-09 00:04N 41°04' E 002°24'23710.6
2018-Nov-08 01:41N 43°09' E 006°55'210.9
2018-Nov-08 01:32N 43°10' E 006°57'713.1
2018-Nov-08 01:02N 43°13' E 007°04'411.1
2018-Nov-08 00:43N 43°15' E 007°08'210.9
2018-Nov-08 00:32N 43°16' E 007°10'110.8
2018-Nov-08 00:29N 43°17' E 007°11'510.8
2018-Nov-08 00:02N 43°20' E 007°16'510.8
2018-Nov-07 23:32N 43°23' E 007°22'510.9
2018-Nov-07 23:02N 43°26' E 007°29'510.9
2018-Nov-07 22:32N 43°29' E 007°35'611.2
2018-Nov-07 22:02N 43°33' E 007°41'611.4
2018-Nov-07 21:32N 43°36' E 007°47'611.3
2018-Nov-07 21:02N 43°39' E 007°53'611.1
2018-Nov-07 20:32N 43°43' E 007°60'611.0
2018-Nov-07 20:02N 43°46' E 008°06'610.9
2018-Nov-07 19:31N 43°49' E 008°12'610.5
2018-Nov-07 18:58N 43°53' E 008°18'410.3
2018-Nov-07 18:32N 43°57' E 008°22'510.4
2018-Nov-07 18:02N 44°01' E 008°26'510.4
2018-Nov-07 17:32N 44°05' E 008°30'5 9.9
2018-Nov-07 17:02N 44°10' E 008°32'5 9.9
2018-Nov-07 16:32N 44°15' E 008°32'4 8.8
2018-Nov-07 16:02N 44°19' E 008°31'1 1.8
2018-Nov-07 15:31N 44°19' E 008°29'0 0.0
2018-Nov-07 15:01N 44°19' E 008°29'0 0.0
2018-Nov-07 14:31N 44°19' E 008°29'0 0.0
2018-Nov-07 14:01N 44°19' E 008°29'0 0.0
2018-Nov-07 13:31N 44°19' E 008°29'0 0.0
2018-Nov-07 13:01N 44°19' E 008°29'0 0.0
2018-Nov-07 12:32N 44°19' E 008°29'0 0.0
2018-Nov-07 12:01N 44°19' E 008°29'0 0.0
2018-Nov-07 11:31N 44°19' E 008°29'0 0.0
2018-Nov-07 11:01N 44°19' E 008°29'0 0.0
2018-Nov-07 10:31N 44°19' E 008°29'0 0.0
2018-Nov-07 10:01N 44°19' E 008°29'0 0.0
2018-Nov-07 09:31N 44°19' E 008°29'0 0.0
2018-Nov-07 09:01N 44°19' E 008°29'0 0.0
2018-Nov-07 08:32N 44°19' E 008°29'0 0.0
2018-Nov-07 08:01N 44°19' E 008°29'0 0.0
2018-Nov-07 07:31N 44°19' E 008°29'1 1.3
2018-Nov-07 07:03N 44°19' E 008°30'2 4.6
2018-Nov-07 06:32N 44°17' E 008°32'714.7
2018-Nov-07 06:03N 44°10' E 008°32'815.2
2018-Nov-07 05:33N 44°03' E 008°28'916.2
2018-Nov-07 05:01N 43°56' E 008°21'816.0
2018-Nov-07 04:33N 43°50' E 008°14'6913.7
2018-Nov-06 23:30N 43°10' E 006°57'612.4
2018-Nov-06 23:03N 43°07' E 006°50'111.8
2018-Nov-06 23:00N 43°07' E 006°50'6711.4
2018-Nov-06 17:07N 43°11' E 005°18'113.6
2018-Nov-06 17:01N 43°13' E 005°17'014.5
2018-Nov-06 17:00N 43°13' E 005°17'612.8
2018-Nov-06 16:30N 43°19' E 005°17'3 1.2
2018-Nov-06 14:03N 43°21' E 005°20'0 0.0
2018-Nov-06 13:51N 43°21' E 005°20'0 0.0
2018-Nov-06 13:21N 43°21' E 005°20'0 0.0
2018-Nov-06 12:09N 43°21' E 005°20'0 0.0
2018-Nov-06 07:57N 43°21' E 005°20'0 0.6
2018-Nov-06 07:26N 43°21' E 005°20'3 5.7
2018-Nov-06 06:56N 43°18' E 005°18'4 9.0
2018-Nov-06 06:30N 43°16' E 005°14'4 9.0
2018-Nov-06 06:01N 43°13' E 005°10'0 9.5
2018-Nov-06 06:00N 43°13' E 005°10'16916.4
2018-Nov-05 19:42N 41°16' E 002°24'316.7
2018-Nov-05 19:30N 41°16' E 002°20'715.8
2018-Nov-05 19:04N 41°17' E 002°11'114.8
2018-Nov-05 19:01N 41°18' E 002°10'4 7.2
2018-Nov-05 18:31N 41°21' E 002°10'0 0.0
2018-Nov-05 17:59N 41°21' E 002°10'0 0.0
2018-Nov-05 17:28N 41°21' E 002°10'0 0.0
2018-Nov-05 17:01N 41°21' E 002°10'0 0.0
2018-Nov-05 16:58N 41°21' E 002°10'0 0.0
2018-Nov-05 16:28N 41°21' E 002°10'0 0.0
2018-Nov-05 16:03N 41°21' E 002°10'0 0.0
2018-Nov-05 16:00N 41°21' E 002°10'0 0.0
2018-Nov-05 15:30N 41°21' E 002°10'0 0.0
2018-Nov-05 15:03N 41°21' E 002°10'0 0.0
2018-Nov-05 14:57N 41°21' E 002°10'0 0.0
2018-Nov-05 14:27N 41°21' E 002°10'0 0.0
2018-Nov-05 14:03N 41°21' E 002°10'0 0.0
2018-Nov-05 13:30N 41°21' E 002°10'0 0.0
2018-Nov-05 13:01N 41°21' E 002°10'0 0.0
2018-Nov-05 12:58N 41°21' E 002°10'0 0.0
2018-Nov-05 12:28N 41°21' E 002°10'0 0.0
2018-Nov-05 12:01N 41°21' E 002°10'0 0.0
2018-Nov-05 11:58N 41°21' E 002°10'0 0.2
2018-Nov-05 11:30N 41°21' E 002°10'2 4.7
2018-Nov-05 11:03N 41°19' E 002°10'0 9.8
2018-Nov-05 11:00N 41°19' E 002°10'611.1
2018-Nov-05 10:30N 41°17' E 002°17'918.1
2018-Nov-05 10:02N 41°17' E 002°29'018.1
2018-Nov-05 10:00N 41°17' E 002°29'22818.4
2018-Nov-04 21:37N 43°10' E 006°58'219.3
2018-Nov-04 21:30N 43°11' E 006°60'919.2
2018-Nov-04 21:03N 43°16' E 007°10'119.2
2018-Nov-04 21:00N 43°17' E 007°11'1019.2
2018-Nov-04 20:30N 43°22' E 007°21'919.6
2018-Nov-04 20:03N 43°27' E 007°31'119.1
2018-Nov-04 20:00N 43°28' E 007°32'1019.4
2018-Nov-04 19:30N 43°34' E 007°43'919.7
2018-Nov-04 19:03N 43°39' E 007°53'119.5
2018-Nov-04 19:00N 43°39' E 007°54'1019.4
2018-Nov-04 18:30N 43°45' E 008°05'919.7
2018-Nov-04 18:03N 43°50' E 008°15'119.6
2018-Nov-04 18:00N 43°51' E 008°16'1019.5
2018-Nov-04 17:30N 43°59' E 008°23'1019.5
2018-Nov-04 17:00N 44°07' E 008°30'917.8
2018-Nov-04 16:31N 44°16' E 008°32'3 6.8
2018-Nov-04 16:03N 44°19' E 008°30'0 3.5
2018-Nov-04 16:00N 44°19' E 008°30'0 0.7
2018-Nov-04 15:29N 44°19' E 008°29'0 0.0
2018-Nov-04 15:02N 44°19' E 008°29'0 0.0
2018-Nov-04 14:59N 44°19' E 008°29'0 0.0
2018-Nov-04 14:29N 44°19' E 008°29'0 0.0
2018-Nov-04 14:02N 44°19' E 008°29'0 0.0
2018-Nov-04 13:59N 44°19' E 008°29'0 0.0
2018-Nov-04 13:29N 44°19' E 008°29'0 0.0
2018-Nov-04 13:02N 44°19' E 008°29'0 0.0
2018-Nov-04 12:59N 44°19' E 008°29'0 0.0
2018-Nov-04 12:29N 44°19' E 008°29'0 0.0
2018-Nov-04 12:02N 44°19' E 008°29'0 0.0
2018-Nov-04 11:59N 44°19' E 008°29'0 0.0
2018-Nov-04 11:29N 44°19' E 008°29'0 0.0
2018-Nov-04 11:02N 44°19' E 008°29'0 0.0
2018-Nov-04 10:59N 44°19' E 008°29'0 0.0
2018-Nov-04 10:29N 44°19' E 008°29'0 0.0
2018-Nov-04 10:02N 44°19' E 008°29'0 0.0
2018-Nov-04 09:59N 44°19' E 008°29'0 0.0
2018-Nov-04 09:29N 44°19' E 008°29'0 0.0
2018-Nov-04 09:02N 44°19' E 008°29'0 0.0
2018-Nov-04 08:59N 44°19' E 008°29'0 0.0
2018-Nov-04 08:29N 44°19' E 008°29'0 0.0
2018-Nov-04 08:02N 44°19' E 008°29'0 0.0
2018-Nov-04 07:59N 44°19' E 008°29'0 0.0
2018-Nov-04 07:30N 44°19' E 008°29'1 1.7
2018-Nov-04 07:03N 44°19' E 008°30'0 3.5
2018-Nov-04 07:00N 44°19' E 008°30'4 7.1
2018-Nov-04 06:30N 44°16' E 008°32'612.7
2018-Nov-04 06:03N 44°10' E 008°31'112.6
2018-Nov-04 06:00N 44°09' E 008°30'612.5
2018-Nov-04 05:30N 44°04' E 008°27'612.3
2018-Nov-04 05:03N 43°59' E 008°23'112.2
2018-Nov-04 05:00N 43°58' E 008°23'612.4
2018-Nov-04 04:30N 43°54' E 008°17'612.6
2018-Nov-04 04:03N 43°49' E 008°12'112.7
2018-Nov-04 04:00N 43°49' E 008°11'612.7
2018-Nov-04 03:30N 43°45' E 008°05'612.5
2018-Nov-04 03:03N 43°42' E 007°58'112.3
2018-Nov-04 03:00N 43°42' E 007°57'612.1
2018-Nov-04 02:31N 43°38' E 007°51'612.5
2018-Nov-04 02:03N 43°34' E 007°44'112.7
2018-Nov-04 02:00N 43°34' E 007°44'612.6
2018-Nov-04 01:30N 43°30' E 007°37'612.7
2018-Nov-04 01:04N 43°27' E 007°31'112.7
2018-Nov-04 01:00N 43°26' E 007°30'612.7
2018-Nov-04 00:30N 43°23' E 007°23'613.1
2018-Nov-04 00:03N 43°19' E 007°16'113.0
2018-Nov-04 00:00N 43°19' E 007°16'612.9
2018-Nov-03 23:30N 43°15' E 007°09'612.9
2018-Nov-03 23:03N 43°12' E 007°02'112.8
2018-Nov-03 23:00N 43°12' E 007°01'612.7
2018-Nov-03 22:31N 43°08' E 006°54'7012.7
2018-Nov-03 16:58N 43°12' E 005°17'815.7
2018-Nov-03 16:28N 43°20' E 005°17'2 0.4
2018-Nov-03 11:18N 43°21' E 005°20'1 0.2
2018-Nov-03 07:10N 43°21' E 005°19'1 7.0
2018-Nov-03 07:02N 43°21' E 005°18'1 8.6
2018-Nov-03 06:58N 43°21' E 005°17'5 9.7
2018-Nov-03 06:30N 43°18' E 005°13'716.7
2018-Nov-03 06:03N 43°11' E 005°09'117.6
2018-Nov-03 05:59N 43°10' E 005°07'816.9
2018-Nov-03 05:30N 43°07' E 004°57'14816.7
2018-Nov-02 20:41N 41°24' E 002°34'319.6
2018-Nov-02 20:30N 41°22' E 002°30'919.6
2018-Nov-02 20:03N 41°17' E 002°21'119.8
2018-Nov-02 20:00N 41°16' E 002°20'1019.6
2018-Nov-02 19:30N 41°10' E 002°09'919.5
2018-Nov-02 19:03N 41°07' E 001°58'119.3
2018-Nov-02 19:00N 41°07' E 001°57'1019.7
2018-Nov-02 18:30N 41°04' E 001°44'920.2
2018-Nov-02 18:03N 41°03' E 001°32'120.5
2018-Nov-02 17:59N 41°03' E 001°30'6 0.4
2018-Nov-02 04:41N 40°58' E 001°28'210.2
2018-Nov-02 04:29N 40°57' E 001°30'7 9.7
2018-Nov-02 03:45N 40°53' E 001°38'2 8.8
2018-Nov-02 03:30N 40°54' E 001°41'4 9.4
2018-Nov-02 03:03N 40°55' E 001°46'0 9.5
2018-Nov-02 03:00N 40°55' E 001°47'5 9.7
2018-Nov-02 02:30N 40°57' E 001°53'4 9.7
2018-Nov-02 02:03N 40°58' E 001°59'0 9.7
2018-Nov-02 02:00N 40°58' E 001°59'19 9.8
2018-Nov-02 00:02N 41°03' E 002°24'  
Track history (hours):
 
Tides and Currents Weather Stations Pressure Air Temp Water Temp Dewpoint Dewpoint Depression Visibility Wind Speed Wind Dir Waves Ship Positions

Costa Mediterranea

Last reported at 2018-Nov-11 02:32 UTC. Time now 2018-Nov-14 02:33 UTC.
Position N 43°39' E 007°53'.

Length 293 m; draft 8 m.

Type: Ship. MMSI: 247088200.

Date/timePositionNaut miles runAvg speedWind from/ knotsBaromVisibWave heightAir tempDewpointWater temp
2018-Nov-11 02:32N 43°39' E 007°53'713.5
2018-Nov-11 02:02N 43°35' E 007°45'713.7
2018-Nov-11 01:32N 43°31' E 007°38'713.7
2018-Nov-11 01:02N 43°27' E 007°30'713.8
2018-Nov-11 00:32N 43°23' E 007°23'714.0
2018-Nov-11 00:02N 43°18' E 007°15'713.7
2018-Nov-10 23:32N 43°15' E 007°07'713.6
2018-Nov-10 23:02N 43°11' E 006°59'713.6
2018-Nov-10 22:32N 43°07' E 006°51'713.0
2018-Nov-10 22:02N 43°04' E 006°44'6412.3
2018-Nov-10 16:52N 43°12' E 005°17'413.7
2018-Nov-10 16:32N 43°16' E 005°15'611.1
2018-Nov-10 16:01N 43°21' E 005°19'1 0.9
2018-Nov-10 15:04N 43°21' E 005°20'0 0.0
2018-Nov-10 13:16N 43°21' E 005°20'0 0.0
2018-Nov-10 12:46N 43°21' E 005°20'0 0.0
2018-Nov-10 11:10N 43°21' E 005°20'0 0.0
2018-Nov-10 10:10N 43°21' E 005°20'0 0.0
2018-Nov-10 09:10N 43°21' E 005°20'0 0.0
2018-Nov-10 08:52N 43°21' E 005°20'0 0.0
2018-Nov-10 07:52N 43°21' E 005°20'0 0.7
2018-Nov-10 07:19N 43°21' E 005°20'2 5.3
2018-Nov-10 06:57N 43°21' E 005°17'4 9.8
2018-Nov-10 06:33N 43°18' E 005°13'916.5
2018-Nov-10 06:01N 43°10' E 005°07'15817.7
2018-Nov-09 21:08N 41°21' E 002°34'317.8
2018-Nov-09 20:57N 41°19' E 002°30'717.6
2018-Nov-09 20:33N 41°16' E 002°22'917.7
2018-Nov-09 20:03N 41°13' E 002°11'918.0
2018-Nov-09 19:32N 41°10' E 001°59'918.0
2018-Nov-09 19:02N 41°08' E 001°48'918.5
2018-Nov-09 18:32N 41°06' E 001°36'10 0.7
2018-Nov-09 04:26N 40°57' E 001°30'610.0
2018-Nov-09 03:52N 40°54' E 001°37'3 9.0
2018-Nov-09 03:29N 40°54' E 001°41'6 9.6
2018-Nov-09 02:49N 40°56' E 001°49'310.0
2018-Nov-09 02:31N 40°57' E 001°53'510.0
2018-Nov-09 02:02N 40°58' E 001°59'5 9.8
2018-Nov-09 01:32N 40°59' E 002°05'15 9.9
2018-Nov-09 00:04N 41°04' E 002°24'23710.6
2018-Nov-08 01:41N 43°09' E 006°55'210.9
2018-Nov-08 01:32N 43°10' E 006°57'713.1
2018-Nov-08 01:02N 43°13' E 007°04'411.1
2018-Nov-08 00:43N 43°15' E 007°08'210.9
2018-Nov-08 00:32N 43°16' E 007°10'110.8
2018-Nov-08 00:29N 43°17' E 007°11'510.8
2018-Nov-08 00:02N 43°20' E 007°16'510.8
2018-Nov-07 23:32N 43°23' E 007°22'510.9
2018-Nov-07 23:02N 43°26' E 007°29'510.9
2018-Nov-07 22:32N 43°29' E 007°35'611.2
2018-Nov-07 22:02N 43°33' E 007°41'611.4
2018-Nov-07 21:32N 43°36' E 007°47'611.3
2018-Nov-07 21:02N 43°39' E 007°53'611.1
2018-Nov-07 20:32N 43°43' E 007°60'611.0
2018-Nov-07 20:02N 43°46' E 008°06'610.9
2018-Nov-07 19:31N 43°49' E 008°12'610.5
2018-Nov-07 18:58N 43°53' E 008°18'410.3
2018-Nov-07 18:32N 43°57' E 008°22'510.4
2018-Nov-07 18:02N 44°01' E 008°26'510.4
2018-Nov-07 17:32N 44°05' E 008°30'5 9.9
2018-Nov-07 17:02N 44°10' E 008°32'5 9.9
2018-Nov-07 16:32N 44°15' E 008°32'4 8.8
2018-Nov-07 16:02N 44°19' E 008°31'1 1.8
2018-Nov-07 15:31N 44°19' E 008°29'0 0.0
2018-Nov-07 15:01N 44°19' E 008°29'0 0.0
2018-Nov-07 14:31N 44°19' E 008°29'0 0.0
2018-Nov-07 14:01N 44°19' E 008°29'0 0.0
2018-Nov-07 13:31N 44°19' E 008°29'0 0.0
2018-Nov-07 13:01N 44°19' E 008°29'0 0.0
2018-Nov-07 12:32N 44°19' E 008°29'0 0.0
2018-Nov-07 12:01N 44°19' E 008°29'0 0.0
2018-Nov-07 11:31N 44°19' E 008°29'0 0.0
2018-Nov-07 11:01N 44°19' E 008°29'0 0.0
2018-Nov-07 10:31N 44°19' E 008°29'0 0.0
2018-Nov-07 10:01N 44°19' E 008°29'0 0.0
2018-Nov-07 09:31N 44°19' E 008°29'0 0.0
2018-Nov-07 09:01N 44°19' E 008°29'0 0.0
2018-Nov-07 08:32N 44°19' E 008°29'0 0.0
2018-Nov-07 08:01N 44°19' E 008°29'0 0.0
2018-Nov-07 07:31N 44°19' E 008°29'1 1.3
2018-Nov-07 07:03N 44°19' E 008°30'2 4.6
2018-Nov-07 06:32N 44°17' E 008°32'714.7
2018-Nov-07 06:03N 44°10' E 008°32'815.2
2018-Nov-07 05:33N 44°03' E 008°28'916.2
2018-Nov-07 05:01N 43°56' E 008°21'816.0
2018-Nov-07 04:33N 43°50' E 008°14'6913.7
2018-Nov-06 23:30N 43°10' E 006°57'612.4
2018-Nov-06 23:03N 43°07' E 006°50'111.8
2018-Nov-06 23:00N 43°07' E 006°50'6711.4
2018-Nov-06 17:07N 43°11' E 005°18'113.6
2018-Nov-06 17:01N 43°13' E 005°17'014.5
2018-Nov-06 17:00N 43°13' E 005°17'612.8
2018-Nov-06 16:30N 43°19' E 005°17'3 1.2
2018-Nov-06 14:03N 43°21' E 005°20'0 0.0
2018-Nov-06 13:51N 43°21' E 005°20'0 0.0
2018-Nov-06 13:21N 43°21' E 005°20'0 0.0
2018-Nov-06 12:09N 43°21' E 005°20'0 0.0
2018-Nov-06 07:57N 43°21' E 005°20'0 0.6
2018-Nov-06 07:26N 43°21' E 005°20'3 5.7
2018-Nov-06 06:56N 43°18' E 005°18'4 9.0
2018-Nov-06 06:30N 43°16' E 005°14'4 9.0
2018-Nov-06 06:01N 43°13' E 005°10'0 9.5
2018-Nov-06 06:00N 43°13' E 005°10'16916.4
2018-Nov-05 19:42N 41°16' E 002°24'316.7
2018-Nov-05 19:30N 41°16' E 002°20'715.8
2018-Nov-05 19:04N 41°17' E 002°11'114.8
2018-Nov-05 19:01N 41°18' E 002°10'4 7.2
2018-Nov-05 18:31N 41°21' E 002°10'0 0.0
2018-Nov-05 17:59N 41°21' E 002°10'0 0.0
2018-Nov-05 17:28N 41°21' E 002°10'0 0.0
2018-Nov-05 17:01N 41°21' E 002°10'0 0.0
2018-Nov-05 16:58N 41°21' E 002°10'0 0.0
2018-Nov-05 16:28N 41°21' E 002°10'0 0.0
2018-Nov-05 16:03N 41°21' E 002°10'0 0.0
2018-Nov-05 16:00N 41°21' E 002°10'0 0.0
2018-Nov-05 15:30N 41°21' E 002°10'0 0.0
2018-Nov-05 15:03N 41°21' E 002°10'0 0.0
2018-Nov-05 14:57N 41°21' E 002°10'0 0.0
2018-Nov-05 14:27N 41°21' E 002°10'0 0.0
2018-Nov-05 14:03N 41°21' E 002°10'0 0.0
2018-Nov-05 13:30N 41°21' E 002°10'0 0.0
2018-Nov-05 13:01N 41°21' E 002°10'0 0.0
2018-Nov-05 12:58N 41°21' E 002°10'0 0.0
2018-Nov-05 12:28N 41°21' E 002°10'0 0.0
2018-Nov-05 12:01N 41°21' E 002°10'0 0.0
2018-Nov-05 11:58N 41°21' E 002°10'0 0.2
2018-Nov-05 11:30N 41°21' E 002°10'2 4.7
2018-Nov-05 11:03N 41°19' E 002°10'0 9.8
2018-Nov-05 11:00N 41°19' E 002°10'611.1
2018-Nov-05 10:30N 41°17' E 002°17'918.1
2018-Nov-05 10:02N 41°17' E 002°29'018.1
2018-Nov-05 10:00N 41°17' E 002°29'22818.4
2018-Nov-04 21:37N 43°10' E 006°58'219.3
2018-Nov-04 21:30N 43°11' E 006°60'919.2
2018-Nov-04 21:03N 43°16' E 007°10'119.2
2018-Nov-04 21:00N 43°17' E 007°11'1019.2
2018-Nov-04 20:30N 43°22' E 007°21'919.6
2018-Nov-04 20:03N 43°27' E 007°31'119.1
2018-Nov-04 20:00N 43°28' E 007°32'1019.4
2018-Nov-04 19:30N 43°34' E 007°43'919.7
2018-Nov-04 19:03N 43°39' E 007°53'119.5
2018-Nov-04 19:00N 43°39' E 007°54'1019.4
2018-Nov-04 18:30N 43°45' E 008°05'919.7
2018-Nov-04 18:03N 43°50' E 008°15'119.6
2018-Nov-04 18:00N 43°51' E 008°16'1019.5
2018-Nov-04 17:30N 43°59' E 008°23'1019.5
2018-Nov-04 17:00N 44°07' E 008°30'917.8
2018-Nov-04 16:31N 44°16' E 008°32'3 6.8
2018-Nov-04 16:03N 44°19' E 008°30'0 3.5
2018-Nov-04 16:00N 44°19' E 008°30'0 0.7
2018-Nov-04 15:29N 44°19' E 008°29'0 0.0
2018-Nov-04 15:02N 44°19' E 008°29'0 0.0
2018-Nov-04 14:59N 44°19' E 008°29'0 0.0
2018-Nov-04 14:29N 44°19' E 008°29'0 0.0
2018-Nov-04 14:02N 44°19' E 008°29'0 0.0
2018-Nov-04 13:59N 44°19' E 008°29'0 0.0
2018-Nov-04 13:29N 44°19' E 008°29'0 0.0
2018-Nov-04 13:02N 44°19' E 008°29'0 0.0
2018-Nov-04 12:59N 44°19' E 008°29'0 0.0
2018-Nov-04 12:29N 44°19' E 008°29'0 0.0
2018-Nov-04 12:02N 44°19' E 008°29'0 0.0
2018-Nov-04 11:59N 44°19' E 008°29'0 0.0
2018-Nov-04 11:29N 44°19' E 008°29'0 0.0
2018-Nov-04 11:02N 44°19' E 008°29'0 0.0
2018-Nov-04 10:59N 44°19' E 008°29'0 0.0
2018-Nov-04 10:29N 44°19' E 008°29'0 0.0
2018-Nov-04 10:02N 44°19' E 008°29'0 0.0
2018-Nov-04 09:59N 44°19' E 008°29'0 0.0
2018-Nov-04 09:29N 44°19' E 008°29'0 0.0
2018-Nov-04 09:02N 44°19' E 008°29'0 0.0
2018-Nov-04 08:59N 44°19' E 008°29'0 0.0
2018-Nov-04 08:29N 44°19' E 008°29'0 0.0
2018-Nov-04 08:02N 44°19' E 008°29'0 0.0
2018-Nov-04 07:59N 44°19' E 008°29'0 0.0
2018-Nov-04 07:30N 44°19' E 008°29'1 1.7
2018-Nov-04 07:03N 44°19' E 008°30'0 3.5
2018-Nov-04 07:00N 44°19' E 008°30'4 7.1
2018-Nov-04 06:30N 44°16' E 008°32'612.7
2018-Nov-04 06:03N 44°10' E 008°31'112.6
2018-Nov-04 06:00N 44°09' E 008°30'612.5
2018-Nov-04 05:30N 44°04' E 008°27'612.3
2018-Nov-04 05:03N 43°59' E 008°23'112.2
2018-Nov-04 05:00N 43°58' E 008°23'612.4
2018-Nov-04 04:30N 43°54' E 008°17'612.6
2018-Nov-04 04:03N 43°49' E 008°12'112.7
2018-Nov-04 04:00N 43°49' E 008°11'612.7
2018-Nov-04 03:30N 43°45' E 008°05'612.5
2018-Nov-04 03:03N 43°42' E 007°58'112.3
2018-Nov-04 03:00N 43°42' E 007°57'612.1
2018-Nov-04 02:31N 43°38' E 007°51'612.5
2018-Nov-04 02:03N 43°34' E 007°44'112.7
2018-Nov-04 02:00N 43°34' E 007°44'612.6
2018-Nov-04 01:30N 43°30' E 007°37'612.7
2018-Nov-04 01:04N 43°27' E 007°31'112.7
2018-Nov-04 01:00N 43°26' E 007°30'612.7
2018-Nov-04 00:30N 43°23' E 007°23'613.1
2018-Nov-04 00:03N 43°19' E 007°16'113.0
2018-Nov-04 00:00N 43°19' E 007°16'612.9
2018-Nov-03 23:30N 43°15' E 007°09'612.9
2018-Nov-03 23:03N 43°12' E 007°02'112.8
2018-Nov-03 23:00N 43°12' E 007°01'612.7
2018-Nov-03 22:31N 43°08' E 006°54'7012.7
2018-Nov-03 16:58N 43°12' E 005°17'815.7
2018-Nov-03 16:28N 43°20' E 005°17'2 0.4
2018-Nov-03 11:18N 43°21' E 005°20'1 0.2
2018-Nov-03 07:10N 43°21' E 005°19'1 7.0
2018-Nov-03 07:02N 43°21' E 005°18'1 8.6
2018-Nov-03 06:58N 43°21' E 005°17'5 9.7
2018-Nov-03 06:30N 43°18' E 005°13'716.7
2018-Nov-03 06:03N 43°11' E 005°09'117.6
2018-Nov-03 05:59N 43°10' E 005°07'816.9
2018-Nov-03 05:30N 43°07' E 004°57'14816.7
2018-Nov-02 20:41N 41°24' E 002°34'319.6
2018-Nov-02 20:30N 41°22' E 002°30'919.6
2018-Nov-02 20:03N 41°17' E 002°21'119.8
2018-Nov-02 20:00N 41°16' E 002°20'1019.6
2018-Nov-02 19:30N 41°10' E 002°09'919.5
2018-Nov-02 19:03N 41°07' E 001°58'119.3
2018-Nov-02 19:00N 41°07' E 001°57'1019.7
2018-Nov-02 18:30N 41°04' E 001°44'920.2
2018-Nov-02 18:03N 41°03' E 001°32'120.5
2018-Nov-02 17:59N 41°03' E 001°30'6 0.4
2018-Nov-02 04:41N 40°58' E 001°28'210.2
2018-Nov-02 04:29N 40°57' E 001°30'7 9.7
2018-Nov-02 03:45N 40°53' E 001°38'2 8.8
2018-Nov-02 03:30N 40°54' E 001°41'4 9.4
2018-Nov-02 03:03N 40°55' E 001°46'0 9.5
2018-Nov-02 03:00N 40°55' E 001°47'5 9.7
2018-Nov-02 02:30N 40°57' E 001°53'4 9.7
2018-Nov-02 02:03N 40°58' E 001°59'0 9.7
2018-Nov-02 02:00N 40°58' E 001°59'19 9.8
2018-Nov-02 00:02N 41°03' E 002°24'  

Dump ship's entire track history